Time;durP1;ratioP1;P1;durP2;ratioP2;P2;SDS_P1;SDS_P2;PMS_P1;PMS_P2;Temp;Humidity;BMP_temperature;BMP_pressure;BME280_temperature;BME280_humidity;BME280_pressure;Samples;Min_cycle;Max_cycle;Signal;HPM_P1;HPM_P2
2023/01/20 05:48:08;;;;;;;19.15;9.70;;;;;;;1.05;100.00;99607.47;5631071;27;20151;-83
2023/01/20 05:51:12;;;;;;;17.55;9.25;;;;;;;1.07;100.00;99602.00;5343945;33;34317;-84
2023/01/20 05:54:14;;;;;;;19.62;9.93;;;;;;;1.10;100.00;99601.72;5344540;33;34777;-85
2023/01/20 05:57:17;;;;;;;18.65;9.95;;;;;;;1.20;100.00;99601.75;5343149;33;35114;-84
2023/01/20 06:00:20;;;;;;;16.37;9.93;;;;;;;1.25;100.00;99610.13;5343139;33;34481;-84
2023/01/20 06:03:23;;;;;;;17.70;8.60;;;;;;;1.30;100.00;99610.56;5342877;33;34163;-87
2023/01/20 06:06:26;;;;;;;16.02;9.05;;;;;;;1.38;100.00;99605.41;5345816;33;34054;-89
2023/01/20 06:09:29;;;;;;;17.75;9.80;;;;;;;1.38;100.00;99604.59;5342919;33;34042;-89
2023/01/20 06:12:31;;;;;;;16.20;9.35;;;;;;;1.39;100.00;99606.25;5344664;33;34321;-88
2023/01/20 06:15:34;;;;;;;16.27;9.68;;;;;;;1.38;100.00;99607.25;5343407;33;35075;-85
2023/01/20 06:18:37;;;;;;;15.27;8.68;;;;;;;1.45;100.00;99597.75;5344717;33;34544;-86
2023/01/20 06:21:40;;;;;;;15.30;9.05;;;;;;;1.63;100.00;99597.87;5343422;33;34733;-84
2023/01/20 06:24:43;;;;;;;18.00;9.55;;;;;;;1.60;100.00;99599.00;5344045;33;34736;-84
2023/01/20 06:27:46;;;;;;;14.95;9.05;;;;;;;1.65;100.00;99603.91;5343060;33;33591;-84
2023/01/20 06:30:48;;;;;;;16.12;8.30;;;;;;;1.59;100.00;99598.16;5342720;33;34706;-83
2023/01/20 06:33:51;;;;;;;17.73;9.55;;;;;;;1.71;100.00;99588.25;5342715;33;34310;-83
2023/01/20 06:36:56;;;;;;;15.60;8.25;;;;;;;1.66;100.00;99603.75;5346008;33;34193;-83
2023/01/20 06:39:58;;;;;;;16.45;8.75;;;;;;;1.67;100.00;99597.47;5342946;33;34264;-83
2023/01/20 06:43:02;;;;;;;15.43;8.77;;;;;;;1.77;100.00;99594.81;5341510;33;33487;-84
2023/01/20 06:46:10;;;;;;;20.90;9.18;;;;;;;1.82;100.00;99600.53;5343286;33;33917;-84
2023/01/20 06:49:13;;;;;;;18.37;9.15;;;;;;;1.77;100.00;99608.91;5359361;33;34340;-84
2023/01/20 06:52:16;;;;;;;16.23;9.70;;;;;;;1.83;100.00;99607.50;5359758;33;34587;-84
2023/01/20 06:55:19;;;;;;;16.17;8.95;;;;;;;1.81;100.00;99620.94;5361862;33;34115;-83
2023/01/20 06:58:24;;;;;;;17.15;8.90;;;;;;;1.87;100.00;99616.03;5348383;33;266546;-84
2023/01/20 07:01:28;;;;;;;17.87;9.35;;;;;;;1.88;100.00;99628.34;5358987;33;34052;-84
2023/01/20 07:05:09;;;;;;;17.87;10.15;;;;;;;2.47;100.00;99628.06;5598692;31;120412;-84
2023/01/20 07:08:12;;;;;;;17.00;10.23;;;;;;;2.47;100.00;99628.06;5594372;31;32263;-86
2023/01/20 07:11:15;;;;;;;17.60;9.05;;;;;;;2.04;100.00;99620.63;5589629;31;33251;-84
2023/01/20 07:14:18;;;;;;;16.87;9.63;;;;;;;2.06;100.00;99633.75;5599778;31;33670;-85
2023/01/20 07:17:20;;;;;;;16.58;9.57;;;;;;;2.09;100.00;99628.16;5603994;31;33241;-86
2023/01/20 07:20:23;;;;;;;17.95;9.65;;;;;;;2.05;100.00;99630.28;5594250;31;34177;-85
2023/01/20 07:23:26;;;;;;;17.62;8.50;;;;;;;2.08;100.00;99635.31;5594939;31;33833;-85
2023/01/20 07:26:30;;;;;;;17.42;9.60;;;;;;;2.22;100.00;99639.31;5587533;31;35600;-87
2023/01/20 07:29:33;;;;;;;17.23;9.07;;;;;;;2.11;100.00;99644.81;5592580;31;33691;-89
2023/01/20 07:32:36;;;;;;;16.52;8.55;;;;;;;2.17;100.00;99644.22;5603044;31;33945;-88
2023/01/20 07:35:38;;;;;;;15.68;8.98;;;;;;;2.19;100.00;99644.91;5594538;31;34625;-87
2023/01/20 07:38:45;;;;;;;14.77;8.68;;;;;;;2.20;100.00;99658.06;5591461;31;33988;-88
2023/01/20 07:41:48;;;;;;;15.48;10.23;;;;;;;2.18;100.00;99651.22;5595521;31;33409;-88
2023/01/20 07:44:51;;;;;;;16.33;9.77;;;;;;;2.31;100.00;99651.75;5593924;31;34102;-87
2023/01/20 07:47:55;;;;;;;18.83;10.02;;;;;;;2.27;100.00;99647.69;5593331;31;33823;-84
2023/01/20 07:51:01;;;;;;;16.70;9.90;;;;;;;2.37;100.00;99650.31;5579676;31;35007;-83
2023/01/20 07:54:04;;;;;;;20.80;10.05;;;;;;;2.22;100.00;99648.13;5581852;32;33967;-88
2023/01/20 07:57:08;;;;;;;18.48;10.77;;;;;;;2.18;100.00;99660.00;5575254;31;34273;-87
2023/01/20 08:00:11;;;;;;;21.52;9.45;;;;;;;2.25;100.00;99655.81;5576522;32;33779;-88
2023/01/20 08:03:15;;;;;;;19.48;9.90;;;;;;;2.15;100.00;99660.28;5569868;32;33840;-84
2023/01/20 08:06:21;;;;;;;20.12;10.90;;;;;;;2.22;100.00;99679.16;5574125;32;33876;-84
2023/01/20 08:09:24;;;;;;;20.12;9.68;;;;;;;2.07;100.00;99678.75;5582116;31;33905;-84
2023/01/20 08:12:28;;;;;;;20.10;10.30;;;;;;;2.04;100.00;99679.03;5584831;32;35285;-84
2023/01/20 08:15:31;;;;;;;19.70;10.95;;;;;;;2.00;100.00;99682.94;5561193;32;35538;-84
2023/01/20 08:18:35;;;;;;;23.23;11.43;;;;;;;2.09;100.00;99676.78;5557293;32;34614;-83
2023/01/20 08:21:39;;;;;;;21.20;10.98;;;;;;;2.10;100.00;99677.62;5551932;32;33466;-82
2023/01/20 08:24:42;;;;;;;20.60;10.88;;;;;;;2.08;100.00;99675.13;5552989;31;32129;-83
2023/01/20 08:27:48;;;;;;;20.85;9.82;;;;;;;2.11;100.00;99677.50;5553909;32;32293;-83
2023/01/20 08:30:51;;;;;;;18.35;10.15;;;;;;;2.29;100.00;99677.62;5562458;26;33133;-87
2023/01/20 08:33:55;;;;;;;19.62;10.30;;;;;;;2.22;100.00;99685.31;5543116;32;34409;-85
2023/01/20 08:36:57;;;;;;;19.05;10.70;;;;;;;2.06;100.00;99676.25;5545386;32;33916;-88
2023/01/20 08:40:01;;;;;;;19.30;10.98;;;;;;;2.10;100.00;99680.28;5549405;32;33762;-87
2023/01/20 08:43:03;;;;;;;19.42;10.43;;;;;;;2.24;100.00;99679.84;5549634;32;33592;-88
2023/01/20 08:46:11;;;;;;;23.98;10.40;;;;;;;2.29;100.00;99684.75;5545480;32;34907;-90
2023/01/20 08:49:15;;;;;;;22.42;9.88;;;;;;;2.18;100.00;99683.91;5543355;32;34215;-90
2023/01/20 08:52:18;;;;;;;19.35;10.50;;;;;;;2.20;100.00;99686.44;5565169;26;34885;-91
2023/01/20 08:55:21;;;;;;;19.23;9.98;;;;;;;2.24;100.00;99678.03;5551684;32;31996;-90
2023/01/20 08:58:26;;;;;;;18.12;9.80;;;;;;;2.32;100.00;99681.81;5541371;32;33393;-86
2023/01/20 09:01:34;;;;;;;21.15;10.50;;;;;;;2.28;100.00;99686.53;5542955;32;33771;-86
2023/01/20 09:08:42;;;;;;;18.77;10.20;;;;;;;2.39;100.00;99688.22;5465141;32;20153;-89
2023/01/20 09:11:52;;;;;;;16.23;8.82;;;;;;;2.47;100.00;99688.34;5463937;32;32574;-87
2023/01/20 09:19:02;;;;;;;19.65;10.32;;;;;;;2.44;100.00;99685.97;5307340;30;20153;-90
2023/01/20 09:22:42;;;;;;;19.55;9.57;;;;;;;2.53;100.00;99684.28;5540189;26;34151;-91
2023/01/20 09:25:49;;;;;;;17.30;9.20;;;;;;;2.38;100.00;99687.38;5491596;32;34069;-90
2023/01/20 09:32:40;;;;;;;16.62;8.65;;;;;;;2.47;100.00;99672.41;5488473;32;32148;-91
2023/01/20 09:35:53;;;;;;;17.67;9.45;;;;;;;2.47;100.00;99653.81;5488711;32;33861;-89
2023/01/20 09:46:23;;;;;;;18.92;9.32;;;;;;;2.63;100.00;99632.78;5481809;32;33488;-90
2023/01/20 09:53:41;;;;;;;18.23;10.02;;;;;;;2.77;100.00;99631.47;5488867;32;35241;-90
2023/01/20 09:56:48;;;;;;;18.20;9.15;;;;;;;2.84;100.00;99626.41;5473484;32;34272;-88
2023/01/20 10:00:25;;;;;;;17.02;9.10;;;;;;;2.82;100.00;99626.56;5476244;32;34155;-90
2023/01/20 10:11:42;;;;;;;21.92;10.32;;;;;;;2.86;100.00;99588.03;5471729;32;20128;-89
2023/01/20 10:14:56;;;;;;;18.87;10.50;;;;;;;2.88;100.00;99577.28;5463552;32;33187;-90
2023/01/20 10:18:18;;;;;;;17.55;9.60;;;;;;;2.84;100.00;99568.78;5523916;26;33854;-88
2023/01/20 10:21:51;;;;;;;16.80;9.70;;;;;;;2.91;100.00;99551.22;5500694;26;33653;31
2023/01/20 10:25:05;;;;;;;14.73;8.65;;;;;;;3.11;100.00;99551.13;5449226;32;33802;-89
2023/01/20 10:28:22;;;;;;;18.02;10.20;;;;;;;3.24;100.00;99556.06;5448352;32;32226;-86
2023/01/20 10:31:29;;;;;;;17.83;9.75;;;;;;;3.32;100.00;99551.66;5450463;32;34531;-88
2023/01/20 10:34:53;;;;;;;15.82;8.68;;;;;;;3.31;100.00;99565.97;5462050;32;33852;-87
2023/01/20 10:37:58;;;;;;;17.23;9.52;;;;;;;3.47;100.00;99565.25;5454027;32;34097;-90
2023/01/20 10:41:17;;;;;;;18.52;10.00;;;;;;;3.52;100.00;99565.66;5452838;32;35510;-89
2023/01/20 10:44:22;;;;;;;21.23;9.88;;;;;;;3.67;100.00;99563.28;5448075;32;34617;-87
2023/01/20 10:48:05;;;;;;;15.77;9.25;;;;;;;3.83;100.00;99571.41;5453224;32;33639;-86
2023/01/20 10:51:22;;;;;;;14.60;8.57;;;;;;;3.85;100.00;99571.25;5460502;32;33757;-88
2023/01/20 10:54:44;;;;;;;15.73;9.40;;;;;;;3.90;100.00;99576.94;5460040;32;34148;-87
2023/01/20 10:57:55;;;;;;;14.07;8.40;;;;;;;3.86;100.00;99581.75;5460607;32;33437;-88
2023/01/20 11:01:02;;;;;;;14.98;8.43;;;;;;;3.85;100.00;99592.53;5455029;32;33870;-87
2023/01/20 11:04:05;;;;;;;15.90;9.05;;;;;;;3.76;100.00;99594.31;5458344;32;34728;-85
2023/01/20 11:07:14;;;;;;;15.38;8.98;;;;;;;3.81;100.00;99594.69;5452271;32;33576;-89
2023/01/20 11:10:20;;;;;;;14.75;8.82;;;;;;;3.79;100.00;99586.00;5452175;32;34133;-88
2023/01/20 11:13:23;;;;;;;14.82;8.57;;;;;;;3.74;100.00;99584.78;5444187;32;33939;-87
2023/01/20 11:16:30;;;;;;;18.25;9.18;;;;;;;3.69;100.00;99581.78;5448425;32;33817;-87
2023/01/20 11:19:45;;;;;;;17.25;8.88;;;;;;;3.67;100.00;99578.41;5452020;32;33494;-87
2023/01/20 11:22:49;;;;;;;16.48;8.98;;;;;;;3.65;100.00;99581.22;5451822;32;33565;-87
2023/01/20 11:25:57;;;;;;;14.15;8.70;;;;;;;3.66;100.00;99566.94;5452646;32;34203;-87
2023/01/20 11:29:09;;;;;;;17.87;10.13;;;;;;;3.59;100.00;99557.88;5451519;32;33945;-87
2023/01/20 11:32:28;;;;;;;16.02;9.35;;;;;;;3.50;100.00;99556.97;5453904;32;34329;-87
2023/01/20 11:35:31;;;;;;;17.20;9.32;;;;;;;3.45;100.00;99555.75;5456985;32;34256;-87
2023/01/20 11:38:50;;;;;;;18.23;9.32;;;;;;;3.35;100.00;99548.69;5461531;32;34119;-87
2023/01/20 11:42:15;;;;;;;15.68;8.32;;;;;;;3.28;100.00;99529.03;5450298;32;35293;-90
2023/01/20 11:45:23;;;;;;;17.25;9.25;;;;;;;3.15;100.00;99533.88;5451983;32;34147;-87
2023/01/20 11:48:25;;;;;;;17.52;10.18;;;;;;;3.06;100.00;99524.12;5454470;32;33917;-88
2023/01/20 11:51:28;;;;;;;16.62;9.68;;;;;;;3.04;100.00;99531.41;5458114;32;34849;-87
2023/01/20 11:54:31;;;;;;;17.92;9.85;;;;;;;2.90;100.00;99524.81;5462349;32;34604;-87
2023/01/20 11:57:36;;;;;;;18.65;9.45;;;;;;;2.85;100.00;99524.41;5450359;32;33702;-86
2023/01/20 12:00:41;;;;;;;12.32;6.85;;;;;;;2.80;100.00;99522.19;5458786;32;33862;-87
2023/01/20 12:03:47;;;;;;;14.60;8.05;;;;;;;2.73;100.00;99511.31;5454462;32;34309;-86
2023/01/20 12:06:57;;;;;;;12.52;6.35;;;;;;;2.69;100.00;99517.06;5456141;32;34127;-87
2023/01/20 12:10:10;;;;;;;10.05;6.15;;;;;;;2.63;100.00;99515.00;5464092;32;34254;-87
2023/01/20 12:13:22;;;;;;;8.40;6.03;;;;;;;2.53;100.00;99514.25;5459690;32;33597;-86
2023/01/20 12:16:27;;;;;;;7.43;5.35;;;;;;;2.57;100.00;99518.25;5457006;32;34217;-85
2023/01/20 12:19:43;;;;;;;7.45;5.12;;;;;;;2.54;100.00;99521.22;5453198;32;33767;-85
2023/01/20 12:23:19;;;;;;;8.13;5.07;;;;;;;2.38;100.00;99524.53;5461559;32;33711;-86
2023/01/20 12:26:24;;;;;;;11.82;5.72;;;;;;;2.43;100.00;99516.97;5455727;32;33892;-86
2023/01/20 12:29:43;;;;;;;8.13;5.43;;;;;;;2.38;100.00;99521.87;5460261;32;35172;-86
2023/01/20 12:32:46;;;;;;;9.03;5.33;;;;;;;2.48;100.00;99518.16;5457883;32;33780;-90
2023/01/20 12:36:31;;;;;;;9.57;6.00;;;;;;;2.40;100.00;99520.75;5467165;32;35155;-90
2023/01/20 12:40:06;;;;;;;9.07;5.53;;;;;;;2.34;100.00;99520.47;5448657;32;33853;-86
2023/01/20 12:43:20;;;;;;;8.07;4.80;;;;;;;2.25;100.00;99511.56;5451237;32;33940;-87
2023/01/20 12:46:48;;;;;;;8.93;5.85;;;;;;;2.31;100.00;99518.97;5468729;32;34526;-87
2023/01/20 12:50:03;;;;;;;10.48;5.30;;;;;;;2.22;100.00;99519.81;5470702;32;34257;-84
2023/01/20 12:53:37;;;;;;;8.20;4.93;;;;;;;2.17;100.00;99519.44;5463396;32;33838;-83
2023/01/20 12:57:02;;;;;;;9.20;5.18;;;;;;;2.21;100.00;99520.81;5457807;32;34098;-89
2023/01/20 13:00:11;;;;;;;8.73;5.07;;;;;;;2.21;100.00;99521.63;5452044;32;34010;-84
2023/01/20 13:03:40;;;;;;;9.65;5.85;;;;;;;2.08;100.00;99529.09;5456288;32;34002;-86
2023/01/20 13:07:00;;;;;;;7.30;4.60;;;;;;;2.10;100.00;99529.78;5454366;32;33415;-86
2023/01/20 13:10:25;;;;;;;12.60;5.95;;;;;;;2.09;100.00;99533.41;5457184;32;33329;-88
2023/01/20 13:13:44;;;;;;;16.48;8.95;;;;;;;2.04;100.00;99541.81;5453702;32;34438;-89
2023/01/20 13:17:10;;;;;;;16.85;9.35;;;;;;;1.88;100.00;99536.28;5455977;32;33676;-87
2023/01/20 13:20:33;;;;;;;18.62;9.07;;;;;;;1.83;100.00;99535.84;5464782;32;33868;-86
2023/01/20 13:23:37;;;;;;;20.35;9.35;;;;;;;1.77;100.00;99545.22;5462941;32;34364;-91
2023/01/20 13:26:39;;;;;;;22.48;10.43;;;;;;;1.62;100.00;99546.63;5463286;32;35085;-91
2023/01/20 13:29:54;;;;;;;19.48;10.77;;;;;;;1.57;100.00;99554.19;5467003;32;34058;-87
2023/01/20 13:33:05;;;;;;;23.12;11.50;;;;;;;1.47;100.00;99556.84;5459329;32;35350;-86
2023/01/20 13:36:16;;;;;;;20.62;10.75;;;;;;;1.48;100.00;99549.72;5461945;32;33827;-86
2023/01/20 13:39:39;;;;;;;23.02;12.40;;;;;;;1.33;100.00;99552.78;5448458;32;34121;-86
2023/01/20 13:42:42;;;;;;;21.45;12.18;;;;;;;1.23;100.00;99541.34;5458030;32;35351;-88
2023/01/20 13:45:45;;;;;;;20.73;11.75;;;;;;;1.17;100.00;99552.50;5453457;32;33481;-86
2023/01/20 13:49:13;;;;;;;24.02;11.85;;;;;;;1.04;100.00;99544.81;5458496;32;34759;-87
2023/01/20 13:52:51;;;;;;;26.40;12.15;;;;;;;0.89;100.00;99552.31;5457510;32;33763;-86
2023/01/20 13:55:56;;;;;;;23.35;11.50;;;;;;;0.83;100.00;99560.81;5468671;32;33678;-87
2023/01/20 13:58:59;;;;;;;22.60;11.80;;;;;;;0.78;100.00;99555.06;5457161;32;34124;-87
2023/01/20 14:02:21;;;;;;;24.87;12.15;;;;;;;0.66;100.00;99543.75;5461433;32;34294;-88
2023/01/20 14:05:34;;;;;;;27.87;13.15;;;;;;;0.56;100.00;99550.84;5462378;32;35217;-89
2023/01/20 14:08:43;;;;;;;24.02;12.43;;;;;;;0.53;100.00;99564.34;5457397;32;34061;-90
2023/01/20 14:11:55;;;;;;;26.08;12.50;;;;;;;0.54;100.00;99573.97;5466629;32;33529;-85
2023/01/20 14:14:58;;;;;;;25.65;13.48;;;;;;;0.44;100.00;99570.44;5477170;32;34330;-90
2023/01/20 14:18:01;;;;;;;24.98;13.27;;;;;;;0.40;100.00;99572.50;5458202;32;33782;-87
2023/01/20 14:21:19;;;;;;;28.73;15.23;;;;;;;0.40;100.00;99575.16;5456707;32;33814;-87
2023/01/20 14:24:43;;;;;;;28.75;14.77;;;;;;;0.38;100.00;99574.47;5449609;32;34159;-86
2023/01/20 14:27:46;;;;;;;30.42;15.50;;;;;;;0.32;100.00;99585.59;5504337;26;35186;-86
2023/01/20 14:31:13;;;;;;;29.98;16.05;;;;;;;0.36;100.00;99586.16;5491676;32;35529;-89
2023/01/20 14:34:33;;;;;;;36.33;16.70;;;;;;;0.33;100.00;99581.13;5488396;32;33520;-88
2023/01/20 14:37:37;;;;;;;33.53;16.27;;;;;;;0.31;100.00;99583.06;5488023;32;33931;-85
2023/01/20 14:40:41;;;;;;;31.70;15.82;;;;;;;0.31;100.00;99580.41;5495445;32;34304;-86
2023/01/20 14:43:45;;;;;;;32.83;16.35;;;;;;;0.24;100.00;99587.22;5487285;32;33351;-86
2023/01/20 14:46:50;;;;;;;33.22;15.43;;;;;;;0.26;100.00;99590.53;5490892;32;34160;-86
2023/01/20 14:49:54;;;;;;;31.15;14.32;;;;;;;0.24;100.00;99590.69;5488748;32;33445;-88
2023/01/20 14:52:57;;;;;;;26.98;13.75;;;;;;;0.22;100.00;99595.25;5489651;32;34037;-88
2023/01/20 14:56:21;;;;;;;27.35;13.07;;;;;;;0.25;100.00;99596.81;5488287;32;33925;-89
2023/01/20 14:59:25;;;;;;;26.90;12.55;;;;;;;0.24;100.00;99592.50;5492128;32;34622;-90
2023/01/20 15:02:32;;;;;;;27.23;13.90;;;;;;;0.22;100.00;99603.22;5492852;32;33762;-89
2023/01/20 15:05:38;;;;;;;26.10;12.73;;;;;;;0.13;100.00;99583.66;5492847;32;34379;-88
2023/01/20 15:08:45;;;;;;;23.38;12.80;;;;;;;0.13;100.00;99601.34;5493080;32;33461;-89
